Airfield :
LOGIN :

Register | Disclaimer

   EN    FR    IT 

 










Legend :    VFR   Marginal VFR   IFR   Intensive IFR   Very Intensive IFR
Visi :
Ceiling :
>= 8 km
>= 3000ft
5 to 8 km
1000 to 3000 ft
1500m to 5 km
500 to 1000 ft
800 to 1500m
200 to 500 ft
< 800m
< 200 ft
Symbols :   Thunderstorms  Fog  Heavy snow  Heavy precipitations  Wind > 20 kt
SIGMETs :     Misc.  Thunderstorms  Icing  Turbulence  Mountain Waves  Volcanic Ashes






- Airport Elevation : 240 ft
- IATA code : VLC


LEVC - Valencia Manises

CURRENT METAR :
  • 141142Z 08004KT 050V110 9999 SHRA FEW016 BKN025 FEW035TCU 13/09 Q1020 NOSIG

EXPIRED METARs :
  • 141112Z 13004KT 050V170 9999 -SHRA FEW016 BKN030 FEW031TCU 13/09 Q1020 RESHRA NOSIG
  • 141030Z 16007KT 130V190 9999 FEW016 BKN025 14/11 Q1021 NOSIG
  • 141000Z 16004KT 120V210 9999 SCT018 BKN030 15/10 Q1021 NOSIG
  • 140930Z 20003KT 9999 SCT018 BKN035 15/10 Q1021 NOSIG
  • 140900Z 32001KT 9999 BKN017 14/10 Q1020 NOSIG

TAF TAF LEVC
Valid from the 14 at 12:00 until the 15 at 12:00 UTC


141100Z 1412/1512 11010KT 9999 BKN030 TX17/1412Z TN11/1506Z
PROB40
TEMPO 1412/1418 RA BKN014 FEW020TCU
BECMG 1418/1420 04005KT



MET'MAP, your aeronautical weather chart ! - Copyright ORBIFLY December 2007 - Disclaimer

ORBIFLY MET'MAP TEAM :

Programming & Development : Alexandra Zaïnal
Concept & original design : Baudouin d'Aumeries
Assistance for programming : Marc-Olivier Méhu
Technical & hardware support : Manuel Goepfert

Contact : metmap@orbifly.com




SOURCES & CREDITS :

   NOAA